Time;durP1;ratioP1;P1;durP2;ratioP2;P2;SDS_P1;SDS_P2;PMS_P1;PMS_P2;Temp;Humidity;BMP_temperature;BMP_pressure;BME280_temperature;BME280_humidity;BME280_pressure;Samples;Min_cycle;Max_cycle;Signal;HPM_P1;HPM_P2
2021/12/30 00:01:41;;;;;;;3.92;1.75;;;21.00;64.40;;;;;;4972410;28;88546;-69
2021/12/30 00:04:08;;;;;;;4.05;1.70;;;21.00;64.50;;;;;;4971862;28;87305;-70
2021/12/30 00:06:41;;;;;;;4.53;1.95;;;21.00;64.50;;;;;;4971900;28;88377;-69
2021/12/30 00:09:09;;;;;;;5.18;1.70;;;20.90;64.60;;;;;;4970575;28;87425;-70
2021/12/30 00:11:35;;;;;;;4.60;1.80;;;21.00;64.50;;;;;;4969686;28;87427;-69
2021/12/30 00:14:02;;;;;;;3.85;1.52;;;21.00;64.40;;;;;;4970896;28;88185;-69
2021/12/30 00:16:27;;;;;;;4.00;1.80;;;20.90;64.50;;;;;;4971983;28;88232;-70
2021/12/30 00:18:53;;;;;;;3.22;1.70;;;20.90;64.30;;;;;;4971824;28;88298;-69
2021/12/30 00:21:20;;;;;;;5.70;2.03;;;20.90;64.50;;;;;;4971463;28;87436;-70
2021/12/30 00:23:47;;;;;;;4.68;2.00;;;20.90;64.50;;;;;;4972012;28;88176;-70
2021/12/30 00:26:12;;;;;;;4.57;1.95;;;20.90;64.40;;;;;;4971162;28;89593;-70
2021/12/30 00:28:38;;;;;;;5.13;2.10;;;20.90;64.20;;;;;;4969305;28;91401;-69
2021/12/30 00:31:05;;;;;;;4.97;2.05;;;20.90;64.40;;;;;;4971501;28;88121;-70
2021/12/30 00:33:33;;;;;;;3.95;1.65;;;20.90;64.30;;;;;;4971546;28;88103;-70
2021/12/30 00:36:08;;;;;;;3.03;1.63;;;20.90;64.30;;;;;;4971265;28;88001;-70
2021/12/30 00:38:38;;;;;;;4.72;2.22;;;20.90;64.20;;;;;;4970780;28;87896;-69
2021/12/30 00:41:04;;;;;;;3.65;1.95;;;20.90;64.40;;;;;;4969470;28;87841;-69
2021/12/30 00:43:30;;;;;;;4.55;2.20;;;20.90;64.30;;;;;;4969159;28;88080;-70
2021/12/30 00:45:56;;;;;;;3.85;1.92;;;20.90;64.20;;;;;;4970869;28;88372;-70
2021/12/30 00:48:21;;;;;;;6.30;1.80;;;20.90;64.10;;;;;;4971062;28;87939;-69
2021/12/30 00:50:49;;;;;;;5.50;1.70;;;20.90;64.10;;;;;;4968900;28;88952;-69
2021/12/30 00:53:15;;;;;;;4.07;1.92;;;20.90;64.00;;;;;;4970515;28;87381;-70
2021/12/30 00:55:41;;;;;;;3.17;1.70;;;20.90;64.00;;;;;;4970153;28;88238;-70
2021/12/30 00:58:08;;;;;;;4.10;1.85;;;20.80;64.00;;;;;;4970798;28;89044;-69
2021/12/30 01:00:35;;;;;;;4.32;1.80;;;20.80;63.90;;;;;;4971549;28;87547;-69
2021/12/30 01:03:01;;;;;;;4.82;1.73;;;20.80;64.00;;;;;;4971247;28;87627;-69
2021/12/30 01:05:27;;;;;;;3.92;1.75;;;20.80;63.90;;;;;;4971185;28;87428;-69
2021/12/30 01:07:52;;;;;;;3.97;1.80;;;20.80;63.80;;;;;;4970870;28;87915;-69
2021/12/30 01:10:20;;;;;;;3.17;1.70;;;20.80;63.90;;;;;;4971298;28;88186;-71
2021/12/30 01:12:47;;;;;;;4.13;1.90;;;20.80;63.90;;;;;;4970985;28;87374;-69
2021/12/30 01:15:17;;;;;;;4.18;2.05;;;20.80;63.90;;;;;;4969075;28;90590;-69
2021/12/30 01:20:11;;;;;;;5.40;2.22;;;20.80;63.70;;;;;;4970700;28;87527;-70
2021/12/30 01:22:37;;;;;;;4.00;1.63;;;20.80;63.70;;;;;;4970974;28;89439;-69
2021/12/30 01:25:07;;;;;;;4.00;2.08;;;20.80;63.80;;;;;;4970799;28;88714;-70
2021/12/30 01:27:36;;;;;;;3.10;1.60;;;20.80;63.60;;;;;;4970529;28;88222;-70
2021/12/30 01:30:04;;;;;;;2.90;1.38;;;20.80;63.80;;;;;;4970431;28;87707;-70
2021/12/30 01:32:30;;;;;;;2.90;1.63;;;20.80;63.80;;;;;;4970318;28;86933;-69
2021/12/30 01:34:56;;;;;;;2.63;1.38;;;20.80;64.30;;;;;;4968553;28;91507;-69
2021/12/30 01:37:24;;;;;;;2.95;1.50;;;20.80;63.50;;;;;;4970263;28;88069;-70
2021/12/30 01:39:49;;;;;;;3.30;1.83;;;20.80;63.60;;;;;;4970629;28;88616;-70
2021/12/30 01:42:15;;;;;;;3.95;1.80;;;20.80;63.50;;;;;;4970909;28;87737;-70
2021/12/30 01:44:41;;;;;;;4.93;1.95;;;20.80;63.50;;;;;;4967327;28;90943;-70
2021/12/30 01:47:07;;;;;;;3.72;1.80;;;20.80;63.50;;;;;;4970055;28;87495;-69
2021/12/30 01:49:33;;;;;;;5.40;1.85;;;20.80;63.50;;;;;;4970597;28;87369;-69
2021/12/30 01:51:59;;;;;;;2.83;1.42;;;20.80;63.50;;;;;;4970621;28;87805;-70
2021/12/30 01:54:26;;;;;;;2.75;1.45;;;20.80;63.60;;;;;;4970057;28;88014;-69
2021/12/30 01:56:53;;;;;;;4.65;1.77;;;20.80;63.70;;;;;;4970442;28;88752;-69
2021/12/30 01:59:22;;;;;;;4.53;2.08;;;20.70;63.40;;;;;;4970664;28;87762;-70
2021/12/30 02:01:53;;;;;;;3.50;1.60;;;20.70;63.60;;;;;;4970501;28;87895;-70
2021/12/30 02:04:19;;;;;;;3.67;1.90;;;20.70;63.60;;;;;;4969468;28;89110;-69
2021/12/30 02:06:45;;;;;;;3.58;1.85;;;20.70;63.40;;;;;;4969913;28;89274;-70
2021/12/30 02:09:11;;;;;;;3.90;1.60;;;20.70;63.60;;;;;;4968164;28;87638;-69
2021/12/30 02:11:37;;;;;;;3.53;1.73;;;20.70;63.60;;;;;;4969620;28;87364;-69
2021/12/30 02:14:03;;;;;;;3.55;1.60;;;20.70;63.60;;;;;;4969819;28;87581;-71
2021/12/30 02:16:28;;;;;;;4.60;1.88;;;20.70;63.30;;;;;;4969402;28;87384;-70
2021/12/30 02:18:54;;;;;;;3.20;1.58;;;20.70;63.40;;;;;;4969418;28;87599;-71
2021/12/30 02:21:20;;;;;;;4.13;1.77;;;20.70;63.50;;;;;;4968749;28;87572;-69
2021/12/30 02:23:46;;;;;;;3.40;1.60;;;20.70;63.40;;;;;;4969684;28;87880;-69
2021/12/30 02:26:17;;;;;;;3.45;1.90;;;20.70;63.40;;;;;;4969986;28;88275;-70
2021/12/30 02:28:44;;;;;;;4.63;1.90;;;20.70;63.40;;;;;;4969607;28;88943;-70
2021/12/30 02:31:17;;;;;;;4.00;1.73;;;20.70;63.50;;;;;;4970292;28;87830;-70
2021/12/30 02:33:44;;;;;;;2.97;1.58;;;20.70;63.30;;;;;;4969050;28;87292;-69
2021/12/30 02:36:16;;;;;;;3.17;1.58;;;20.70;63.40;;;;;;4968492;28;88143;-70
2021/12/30 02:38:44;;;;;;;5.50;1.80;;;20.70;63.30;;;;;;4969264;28;87900;-71
2021/12/30 02:41:17;;;;;;;3.97;2.00;;;20.70;63.10;;;;;;4968380;28;89054;-70
2021/12/30 02:43:44;;;;;;;3.22;1.60;;;20.70;63.20;;;;;;4968484;28;88263;-70
2021/12/30 02:46:10;;;;;;;3.85;1.75;;;20.70;63.40;;;;;;4968658;28;87302;-71
2021/12/30 02:48:38;;;;;;;3.83;1.52;;;20.60;63.20;;;;;;4969630;28;87751;-70
2021/12/30 02:51:07;;;;;;;3.58;1.90;;;20.70;63.30;;;;;;4969595;28;88117;-70
2021/12/30 02:53:33;;;;;;;3.35;1.67;;;20.70;63.10;;;;;;4968336;28;89893;-70
2021/12/30 02:55:59;;;;;;;3.13;1.60;;;20.60;63.20;;;;;;4967766;28;88198;-71
2021/12/30 02:58:26;;;;;;;3.25;1.63;;;20.70;63.20;;;;;;4968995;28;87655;-69
2021/12/30 03:01:17;;;;;;;3.28;1.80;;;20.70;63.20;;;;;;4969652;28;86905;-70
2021/12/30 03:03:43;;;;;;;2.65;1.50;;;20.70;63.30;;;;;;4968993;28;87780;-69
2021/12/30 03:06:10;;;;;;;2.50;1.50;;;20.60;63.30;;;;;;4969320;28;88317;-70
2021/12/30 03:08:36;;;;;;;4.95;2.22;;;20.60;63.40;;;;;;4972294;28;88069;-70
2021/12/30 03:11:03;;;;;;;3.33;1.50;;;20.60;63.10;;;;;;4973302;28;86594;-70
2021/12/30 03:13:31;;;;;;;3.83;1.42;;;20.60;63.10;;;;;;4972795;28;88022;-69
2021/12/30 03:16:00;;;;;;;3.00;1.50;;;20.60;63.20;;;;;;4973033;28;87624;-70
2021/12/30 03:18:26;;;;;;;3.47;1.63;;;20.60;63.30;;;;;;4972525;28;88611;-71
2021/12/30 03:20:52;;;;;;;4.05;1.70;;;20.60;63.10;;;;;;4970998;28;88071;-70
2021/12/30 03:23:18;;;;;;;4.00;1.70;;;20.60;63.20;;;;;;4972429;28;88181;-69
2021/12/30 03:25:43;;;;;;;4.18;1.80;;;20.60;63.10;;;;;;4971282;28;88846;-70
2021/12/30 03:28:09;;;;;;;3.20;1.80;;;20.60;63.00;;;;;;4973082;28;87037;-70
2021/12/30 03:30:35;;;;;;;3.35;1.88;;;20.60;62.90;;;;;;4971704;28;89128;-71
2021/12/30 03:33:00;;;;;;;2.53;1.60;;;20.60;62.90;;;;;;4972387;28;88579;-69
2021/12/30 03:35:26;;;;;;;3.35;1.52;;;20.60;62.90;;;;;;4972057;28;88258;-71
2021/12/30 03:37:52;;;;;;;3.80;1.92;;;20.60;63.00;;;;;;4972200;28;87072;-71
2021/12/30 03:40:18;;;;;;;4.10;1.75;;;20.60;63.30;;;;;;4971932;28;86994;-70
2021/12/30 03:42:44;;;;;;;2.35;1.40;;;20.60;63.20;;;;;;4971481;28;89837;-70
2021/12/30 03:45:14;;;;;;;2.67;1.60;;;20.60;63.20;;;;;;4972386;28;88901;-69
2021/12/30 03:47:43;;;;;;;2.95;1.45;;;20.60;64.00;;;;;;4972334;28;87372;-70
2021/12/30 03:50:17;;;;;;;3.42;1.60;;;20.60;63.20;;;;;;4972031;28;87660;-69
2021/12/30 03:52:43;;;;;;;3.50;1.83;;;20.60;63.30;;;;;;4970413;28;91649;-70
2021/12/30 03:55:09;;;;;;;3.75;1.60;;;20.50;63.20;;;;;;4972421;28;88731;-69
2021/12/30 03:57:34;;;;;;;2.17;1.23;;;20.50;63.20;;;;;;4972005;28;87194;-69
2021/12/30 04:00:00;;;;;;;2.95;1.60;;;20.60;63.20;;;;;;4972138;28;86766;-69
2021/12/30 04:02:26;;;;;;;2.55;1.55;;;20.60;63.20;;;;;;4971899;28;87582;-70
2021/12/30 04:04:51;;;;;;;3.30;1.75;;;20.60;63.20;;;;;;4972430;28;88131;-70
2021/12/30 04:07:17;;;;;;;2.63;1.60;;;20.50;63.00;;;;;;4972301;28;88326;-69
2021/12/30 04:09:43;;;;;;;2.90;1.60;;;20.50;63.10;;;;;;4971845;28;87653;-69
2021/12/30 04:12:09;;;;;;;2.75;1.40;;;20.60;63.10;;;;;;4972613;28;88367;-70
2021/12/30 04:14:36;;;;;;;2.25;1.50;;;20.50;62.90;;;;;;4972112;28;87263;-70
2021/12/30 04:17:02;;;;;;;3.38;1.50;;;20.50;63.00;;;;;;4986366;22;87648;-85
2021/12/30 04:19:28;;;;;;;3.40;1.33;;;20.60;63.10;;;;;;4970076;28;90801;-84
2021/12/30 04:21:56;;;;;;;1.50;1.27;;;20.50;63.10;;;;;;4971885;28;87761;-84
2021/12/30 04:24:22;;;;;;;3.42;1.50;;;20.50;63.00;;;;;;4971552;28;87758;-85
2021/12/30 04:26:50;;;;;;;3.65;1.70;;;20.50;63.00;;;;;;4971529;28;86959;-86
2021/12/30 04:29:16;;;;;;;2.03;1.30;;;20.50;63.20;;;;;;4970621;28;87365;-84
2021/12/30 04:31:42;;;;;;;3.05;1.65;;;20.50;63.10;;;;;;4970482;28;89236;-84
2021/12/30 04:34:07;;;;;;;2.58;1.48;;;20.50;63.00;;;;;;4971826;28;88151;-86
2021/12/30 04:36:33;;;;;;;3.40;1.60;;;20.50;63.10;;;;;;4971477;28;86941;-84
2021/12/30 04:38:59;;;;;;;3.28;1.50;;;20.50;63.20;;;;;;4971758;28;87922;-85
2021/12/30 04:41:24;;;;;;;2.60;1.45;;;20.50;63.90;;;;;;4969395;28;87834;-85
2021/12/30 04:43:50;;;;;;;2.42;1.40;;;20.50;63.20;;;;;;4969033;28;88273;-86
2021/12/30 04:46:15;;;;;;;3.55;1.63;;;20.50;63.10;;;;;;4970957;28;87963;-83
2021/12/30 04:48:41;;;;;;;1.30;1.13;;;20.50;63.10;;;;;;4970631;28;87277;-84
2021/12/30 04:51:07;;;;;;;2.28;1.38;;;20.50;62.90;;;;;;4970722;28;87522;-84
2021/12/30 04:53:32;;;;;;;3.20;1.55;;;20.50;63.00;;;;;;4970224;28;87992;-84
2021/12/30 04:55:58;;;;;;;3.03;1.58;;;20.50;63.10;;;;;;4970823;28;88928;-84
2021/12/30 04:58:24;;;;;;;2.53;1.35;;;20.50;63.00;;;;;;4969819;28;89645;-84
2021/12/30 05:00:50;;;;;;;1.98;1.30;;;20.50;63.10;;;;;;4969709;28;88372;-84
2021/12/30 05:03:24;;;;;;;2.83;1.70;;;20.50;63.00;;;;;;4968688;28;90213;-84
2021/12/30 05:05:52;;;;;;;2.42;1.52;;;20.50;62.90;;;;;;4968990;28;88061;-84
2021/12/30 05:08:20;;;;;;;2.78;1.60;;;20.50;63.00;;;;;;4970775;28;87317;-84
2021/12/30 05:10:46;;;;;;;2.33;1.40;;;20.50;62.90;;;;;;4968679;28;93131;-84
2021/12/30 05:13:13;;;;;;;1.80;1.30;;;20.50;62.90;;;;;;4968751;28;87167;-85
2021/12/30 05:15:39;;;;;;;2.75;1.50;;;20.40;62.80;;;;;;4969115;28;87847;-84
2021/12/30 05:18:07;;;;;;;2.35;1.40;;;20.50;62.90;;;;;;4970509;28;87912;-85
2021/12/30 05:20:33;;;;;;;2.35;1.30;;;20.40;62.80;;;;;;4970203;28;89287;-83
2021/12/30 05:22:59;;;;;;;2.70;1.50;;;20.40;62.80;;;;;;4970828;28;88760;-83
2021/12/30 05:25:25;;;;;;;2.22;1.40;;;20.40;62.90;;;;;;4970373;28;87453;-85
2021/12/30 05:27:51;;;;;;;2.45;1.60;;;20.40;62.70;;;;;;4970458;28;87147;-84
2021/12/30 05:30:17;;;;;;;3.60;1.45;;;20.40;62.70;;;;;;4969379;28;87782;-83
2021/12/30 05:32:43;;;;;;;2.40;1.30;;;20.40;63.00;;;;;;4970947;28;87531;-84
2021/12/30 05:35:11;;;;;;;1.63;1.30;;;20.40;62.70;;;;;;4968769;28;88376;-84
2021/12/30 05:37:37;;;;;;;1.80;1.13;;;20.40;62.80;;;;;;4970873;28;86982;-84
2021/12/30 05:40:06;;;;;;;1.88;1.30;;;20.40;62.80;;;;;;4970154;28;87567;-86
2021/12/30 05:42:39;;;;;;;2.20;1.33;;;20.40;62.80;;;;;;4969272;28;89795;-83
2021/12/30 05:45:06;;;;;;;3.10;1.48;;;20.40;62.80;;;;;;4970256;28;88693;-85
2021/12/30 05:47:33;;;;;;;2.83;1.60;;;20.40;62.70;;;;;;4971058;28;86974;-83
2021/12/30 05:50:01;;;;;;;2.42;1.50;;;20.40;62.60;;;;;;4969241;28;88513;-84
2021/12/30 05:52:26;;;;;;;3.20;1.40;;;20.30;62.60;;;;;;4968686;28;87706;-86
2021/12/30 05:54:52;;;;;;;2.05;1.25;;;20.40;62.70;;;;;;4969814;28;87299;-84
2021/12/30 05:57:17;;;;;;;2.35;1.20;;;20.40;62.80;;;;;;4969875;28;87677;-84
2021/12/30 05:59:43;;;;;;;2.28;1.30;;;20.40;62.80;;;;;;4969307;28;87653;-84
2021/12/30 06:02:09;;;;;;;2.75;1.20;;;20.30;62.60;;;;;;4969384;28;87093;-83
2021/12/30 06:04:35;;;;;;;2.60;1.60;;;20.40;63.00;;;;;;4970563;28;87215;-85
2021/12/30 06:07:01;;;;;;;2.78;1.40;;;20.30;62.70;;;;;;4970461;28;86982;-85
2021/12/30 06:09:26;;;;;;;2.72;1.40;;;20.40;62.70;;;;;;4969514;28;90640;-84
2021/12/30 06:11:53;;;;;;;1.65;1.20;;;20.40;62.70;;;;;;4968771;28;90875;-85
2021/12/30 06:14:18;;;;;;;2.15;1.25;;;20.40;62.50;;;;;;4970954;28;87770;-83
2021/12/30 06:16:44;;;;;;;2.30;1.27;;;20.30;62.60;;;;;;4968308;28;89550;-85
2021/12/30 06:19:09;;;;;;;2.05;1.30;;;20.40;63.30;;;;;;4970582;28;88159;-83
2021/12/30 06:21:35;;;;;;;2.13;1.20;;;20.30;62.60;;;;;;4969638;28;87338;-83
2021/12/30 06:24:01;;;;;;;2.08;1.23;;;20.30;62.60;;;;;;4969543;28;87639;-83
2021/12/30 06:26:27;;;;;;;2.28;1.33;;;20.30;63.50;;;;;;4967708;28;88323;-83
2021/12/30 06:28:57;;;;;;;1.70;1.02;;;20.30;62.70;;;;;;4968740;28;88206;-85
2021/12/30 06:31:23;;;;;;;2.47;1.40;;;20.30;62.60;;;;;;4968952;28;89232;-84
2021/12/30 06:33:49;;;;;;;2.03;1.13;;;20.30;62.60;;;;;;4969160;28;89070;-84
2021/12/30 06:36:14;;;;;;;2.72;1.48;;;20.30;62.50;;;;;;4969107;28;87938;-84
2021/12/30 06:38:40;;;;;;;2.05;1.50;;;20.30;62.50;;;;;;4969285;28;86978;-84
2021/12/30 06:41:07;;;;;;;1.83;1.33;;;20.30;62.60;;;;;;4968503;28;87375;-84
2021/12/30 06:43:33;;;;;;;1.92;1.27;;;20.30;62.60;;;;;;4969220;28;87002;-84
2021/12/30 06:46:01;;;;;;;2.35;1.38;;;20.40;62.70;;;;;;4969763;28;87531;-84
2021/12/30 06:48:27;;;;;;;1.80;1.13;;;20.40;63.00;;;;;;4968784;28;88150;-83
2021/12/30 06:50:53;;;;;;;3.50;1.40;;;20.50;63.20;;;;;;4967595;28;90401;-85
2021/12/30 06:53:23;;;;;;;3.05;1.50;;;20.50;63.20;;;;;;4969221;28;87316;-83
2021/12/30 06:55:51;;;;;;;2.25;1.35;;;20.50;63.30;;;;;;4970262;28;87534;-84
2021/12/30 06:58:17;;;;;;;2.85;1.33;;;20.60;63.30;;;;;;4969270;28;88689;-83
2021/12/30 07:00:44;;;;;;;2.17;1.27;;;20.60;63.30;;;;;;4967851;28;89568;-85
2021/12/30 07:03:09;;;;;;;2.15;1.20;;;20.60;63.60;;;;;;4970039;28;87789;-85
2021/12/30 07:05:35;;;;;;;2.97;1.35;;;20.60;63.50;;;;;;4969106;28;87449;-83
2021/12/30 07:08:11;;;;;;;2.58;1.30;;;20.70;63.60;;;;;;4969273;28;87552;-83
2021/12/30 07:10:37;;;;;;;1.25;0.98;;;20.70;63.50;;;;;;4967925;28;90199;-84
2021/12/30 07:13:03;;;;;;;5.32;1.08;;;20.70;63.50;;;;;;4969716;28;87800;-84
2021/12/30 07:15:28;;;;;;;3.83;1.33;;;20.70;63.60;;;;;;4968751;28;86776;-83
2021/12/30 07:17:54;;;;;;;3.78;1.10;;;20.70;63.50;;;;;;4967921;28;88271;-84
2021/12/30 07:20:20;;;;;;;2.00;0.88;;;20.80;63.50;;;;;;4969821;28;87909;-84
2021/12/30 07:22:45;;;;;;;3.25;1.30;;;20.70;63.40;;;;;;4969190;28;88970;-84
2021/12/30 07:25:16;;;;;;;3.08;1.00;;;20.70;63.50;;;;;;4967683;28;89401;-84
2021/12/30 07:27:43;;;;;;;9.75;2.55;;;20.70;63.30;;;;;;4969078;28;88135;-86
2021/12/30 07:30:10;;;;;;;51.83;9.07;;;20.70;63.50;;;;;;4969672;28;87275;-84
2021/12/30 07:32:36;;;;;;;17.52;3.30;;;20.70;63.30;;;;;;4969495;28;87605;-84
2021/12/30 07:35:02;;;;;;;33.10;6.60;;;20.70;63.10;;;;;;4971989;28;87006;-84
2021/12/30 07:37:27;;;;;;;17.05;3.80;;;20.70;63.40;;;;;;4971018;28;87800;-84
2021/12/30 07:39:53;;;;;;;16.15;3.88;;;20.70;63.30;;;;;;4968256;28;90020;-85
2021/12/30 07:42:19;;;;;;;11.75;3.55;;;20.70;63.30;;;;;;4969698;28;86808;-84
2021/12/30 07:44:44;;;;;;;29.35;6.95;;;20.70;63.00;;;;;;4969782;28;87971;-85
2021/12/30 07:47:10;;;;;;;23.08;6.20;;;20.70;63.30;;;;;;4971121;28;88810;-85
2021/12/30 07:49:36;;;;;;;16.58;4.43;;;20.80;63.30;;;;;;4970945;28;88773;-84
2021/12/30 07:52:06;;;;;;;25.60;5.28;;;20.80;63.30;;;;;;4968709;28;87297;-84
2021/12/30 07:54:35;;;;;;;27.60;5.30;;;20.70;63.50;;;;;;4968662;28;89749;-86
2021/12/30 07:57:01;;;;;;;22.25;4.97;;;20.70;64.30;;;;;;4970864;28;88305;-84
2021/12/30 07:59:27;;;;;;;28.90;7.07;;;20.70;64.40;;;;;;4969612;28;89734;-85
2021/12/30 08:01:53;;;;;;;29.15;7.70;;;20.70;64.60;;;;;;4972372;28;87690;-84
2021/12/30 08:04:18;;;;;;;37.20;8.95;;;20.70;64.10;;;;;;4970768;28;89647;-83
2021/12/30 08:06:44;;;;;;;31.83;8.70;;;20.70;64.20;;;;;;4972000;28;88017;-85
2021/12/30 08:09:10;;;;;;;24.65;6.75;;;20.80;64.70;;;;;;4972647;28;87548;-84
2021/12/30 08:11:36;;;;;;;25.60;6.63;;;20.70;64.50;;;;;;4970067;28;88889;-84
2021/12/30 08:14:01;;;;;;;29.48;7.75;;;20.70;64.80;;;;;;4971923;28;86869;-83
2021/12/30 08:16:28;;;;;;;38.65;8.30;;;20.70;64.70;;;;;;4970699;28;89084;-85
2021/12/30 08:18:53;;;;;;;32.75;8.65;;;20.70;65.10;;;;;;4971331;28;87923;-83
2021/12/30 08:21:22;;;;;;;27.88;7.47;;;20.80;65.00;;;;;;4972250;28;87378;-84
2021/12/30 08:23:48;;;;;;;32.17;7.93;;;20.70;65.50;;;;;;4971404;28;87842;-86
2021/12/30 08:26:14;;;;;;;34.47;7.82;;;20.80;66.50;;;;;;4971377;28;87999;-85
2021/12/30 08:28:40;;;;;;;38.58;8.63;;;20.80;65.90;;;;;;4971951;28;87431;-84
2021/12/30 08:31:06;;;;;;;32.17;7.88;;;20.80;65.80;;;;;;4972268;28;87338;-85
2021/12/30 08:33:32;;;;;;;31.15;7.68;;;20.80;66.20;;;;;;4971850;28;87378;-84
2021/12/30 08:36:16;;;;;;;28.17;7.28;;;20.80;66.60;;;;;;4970198;28;88863;-85
2021/12/30 08:38:41;;;;;;;31.02;7.50;;;20.90;66.60;;;;;;4970793;28;89477;-83
2021/12/30 08:41:07;;;;;;;32.25;7.32;;;20.90;67.20;;;;;;4970675;28;87490;-86
2021/12/30 08:43:33;;;;;;;29.65;7.28;;;20.90;67.50;;;;;;4970615;28;89531;-87
2021/12/30 08:45:58;;;;;;;32.28;7.65;;;20.90;68.00;;;;;;4972959;28;88193;-84
2021/12/30 08:48:24;;;;;;;40.92;7.38;;;21.00;67.70;;;;;;4972838;28;87887;-84
2021/12/30 08:50:49;;;;;;;30.83;7.97;;;20.90;67.60;;;;;;4972041;28;87298;-83
2021/12/30 08:53:15;;;;;;;28.52;7.80;;;20.90;67.30;;;;;;4971056;28;87330;-83
2021/12/30 08:55:41;;;;;;;27.25;6.78;;;20.90;67.40;;;;;;4970551;28;87612;-87
2021/12/30 08:58:07;;;;;;;31.13;7.70;;;20.90;67.10;;;;;;4970536;28;87399;-83
2021/12/30 09:00:41;;;;;;;27.60;7.50;;;20.90;67.10;;;;;;4970953;28;88381;-85
2021/12/30 09:03:06;;;;;;;27.40;7.18;;;21.00;67.20;;;;;;4969004;28;88403;-85
2021/12/30 09:05:34;;;;;;;29.33;7.63;;;21.00;67.30;;;;;;4970138;28;87745;-87
2021/12/30 09:08:00;;;;;;;28.73;6.95;;;21.00;67.40;;;;;;4969686;28;88744;-83
2021/12/30 09:10:40;;;;;;;26.48;6.95;;;21.00;67.30;;;;;;4969952;28;87938;-87
2021/12/30 09:13:08;;;;;;;27.08;7.22;;;21.00;67.30;;;;;;4968129;28;89934;-85
2021/12/30 09:15:34;;;;;;;20.67;6.45;;;21.00;67.10;;;;;;4970401;28;86939;-86
2021/12/30 09:18:01;;;;;;;21.83;6.53;;;21.00;67.30;;;;;;4971372;28;89191;-85
2021/12/30 09:20:26;;;;;;;21.48;7.18;;;21.00;67.50;;;;;;4971753;28;87451;-87
2021/12/30 09:22:54;;;;;;;20.45;6.82;;;21.00;66.70;;;;;;4971717;28;87306;-84
2021/12/30 09:25:23;;;;;;;23.95;7.20;;;21.00;67.20;;;;;;4970634;28;89602;-85
2021/12/30 09:27:49;;;;;;;28.13;6.57;;;21.00;68.30;;;;;;4969310;28;90929;-84
2021/12/30 09:30:16;;;;;;;22.88;6.18;;;21.00;67.30;;;;;;4970252;28;87745;-84
2021/12/30 09:32:43;;;;;;;22.23;6.45;;;21.00;67.30;;;;;;4967663;28;87037;-84
2021/12/30 09:35:10;;;;;;;24.48;6.15;;;21.00;67.30;;;;;;4970519;28;87142;-85
2021/12/30 09:37:36;;;;;;;22.13;6.30;;;21.10;67.30;;;;;;4968664;28;90725;-85
2021/12/30 09:40:03;;;;;;;16.17;6.05;;;21.10;67.40;;;;;;4971027;28;87587;-87
2021/12/30 09:42:29;;;;;;;20.50;5.47;;;21.10;66.50;;;;;;4971563;28;88657;-85
2021/12/30 09:45:04;;;;;;;21.83;5.97;;;21.00;66.90;;;;;;4970135;28;87592;-85
2021/12/30 09:47:30;;;;;;;24.13;6.07;;;21.10;67.90;;;;;;4985318;28;89829;-86
2021/12/30 09:49:56;;;;;;;16.67;4.88;;;21.10;67.90;;;;;;4970294;28;88378;-87
2021/12/30 09:52:22;;;;;;;21.10;5.45;;;21.10;67.30;;;;;;4969737;28;87373;-86
2021/12/30 09:54:48;;;;;;;20.50;5.70;;;21.10;68.30;;;;;;4970530;28;88108;-85
2021/12/30 09:57:13;;;;;;;18.30;5.57;;;21.10;68.10;;;;;;4969437;28;87813;-86
2021/12/30 09:59:39;;;;;;;28.38;6.85;;;21.10;68.20;;;;;;4968315;28;87904;-88
2021/12/30 10:02:04;;;;;;;26.00;7.82;;;21.20;68.40;;;;;;4969907;28;87677;-85
2021/12/30 10:04:33;;;;;;;31.52;9.43;;;21.20;68.40;;;;;;4969271;28;87655;-86
2021/12/30 10:07:00;;;;;;;47.17;11.75;;;21.20;69.10;;;;;;4968213;28;86929;-86
2021/12/30 10:09:49;;;;;;;41.13;10.18;;;21.20;68.80;;;;;;4968382;28;87710;-87
2021/12/30 10:12:39;;;;;;;43.67;10.63;;;21.20;68.70;;;;;;4969143;28;87735;-84
2021/12/30 10:15:07;;;;;;;36.55;10.32;;;21.20;69.10;;;;;;4959387;28;88928;-85
2021/12/30 10:17:34;;;;;;;45.28;11.75;;;21.20;69.10;;;;;;4966196;28;88808;-87
2021/12/30 10:20:25;;;;;;;47.97;12.07;;;21.20;69.10;;;;;;4969341;28;88263;-88
2021/12/30 10:22:52;;;;;;;38.72;11.32;;;21.20;69.20;;;;;;4968969;28;87340;-89
2021/12/30 10:25:28;;;;;;;40.67;10.90;;;21.20;69.00;;;;;;5031956;22;88592;-84
2021/12/30 10:27:55;;;;;;;37.15;10.77;;;21.20;69.30;;;;;;4981192;28;88304;-81
2021/12/30 10:30:33;;;;;;;39.53;10.60;;;21.20;69.90;;;;;;4982167;28;88118;-82
2021/12/30 10:33:11;;;;;;;37.00;10.88;;;21.20;70.40;;;;;;4984776;28;87943;-84
2021/12/30 10:35:38;;;;;;;34.92;10.30;;;21.20;70.00;;;;;;4980205;28;89234;-88
2021/12/30 10:38:09;;;;;;;29.10;8.15;;;21.20;70.30;;;;;;4979923;28;87628;-83
2021/12/30 10:40:36;;;;;;;38.53;10.38;;;21.30;69.50;;;;;;4964371;28;88843;-83
2021/12/30 10:43:18;;;;;;;34.42;10.85;;;21.20;69.70;;;;;;4983983;28;87446;-85
2021/12/30 10:46:08;;;;;;;33.22;9.75;;;21.30;70.20;;;;;;4982543;28;87008;-88
2021/12/30 10:49:09;;;;;;;42.75;10.10;;;21.30;70.80;;;;;;4981810;28;88140;-84
2021/12/30 10:51:41;;;;;;;47.03;11.27;;;21.30;71.10;;;;;;4980929;28;87662;-85
2021/12/30 10:54:28;;;;;;;42.95;10.75;;;21.30;71.90;;;;;;4984281;28;88569;-84
2021/12/30 10:56:59;;;;;;;39.75;10.75;;;21.30;71.80;;;;;;4983702;28;87953;-83
2021/12/30 10:59:31;;;;;;;35.08;10.73;;;21.30;72.40;;;;;;4985300;28;86790;-82
2021/12/30 11:02:32;;;;;;;33.85;10.50;;;21.40;72.10;;;;;;4982666;28;87701;-80
2021/12/30 11:05:04;;;;;;;41.50;10.43;;;21.40;71.10;;;;;;4977450;28;87146;-87
2021/12/30 11:07:51;;;;;;;36.92;10.30;;;21.30;70.70;;;;;;4974883;28;88628;-87
2021/12/30 11:10:38;;;;;;;40.75;9.98;;;21.40;71.70;;;;;;4979499;28;87738;-86
2021/12/30 11:13:13;;;;;;;39.03;9.82;;;21.40;71.00;;;;;;4974015;28;88279;-91
2021/12/30 11:15:40;;;;;;;37.17;10.07;;;21.40;71.30;;;;;;4977298;28;87428;-83
2021/12/30 11:18:11;;;;;;;41.15;9.98;;;21.40;71.00;;;;;;4974464;28;87458;-85
2021/12/30 11:20:42;;;;;;;34.72;9.68;;;21.40;71.00;;;;;;4974962;28;88617;-89
2021/12/30 11:23:09;;;;;;;35.75;9.57;;;21.30;71.10;;;;;;4979285;28;86910;-88
2021/12/30 11:25:35;;;;;;;32.58;9.73;;;21.40;71.40;;;;;;4980356;28;86370;-91
2021/12/30 11:28:01;;;;;;;32.58;9.75;;;21.40;71.40;;;;;;4981303;28;87822;-85
2021/12/30 11:30:28;;;;;;;31.15;7.88;;;21.40;70.70;;;;;;4987981;28;88786;-93
2021/12/30 11:32:53;;;;;;;39.55;8.80;;;21.40;70.90;;;;;;4985438;28;87984;-89
2021/12/30 11:35:25;;;;;;;31.48;8.15;;;21.40;71.00;;;;;;4968142;28;88674;-84
2021/12/30 11:37:54;;;;;;;32.80;9.20;;;21.40;71.00;;;;;;4981674;28;90566;-87
2021/12/30 11:40:25;;;;;;;32.20;7.75;;;21.40;70.60;;;;;;4982237;28;90266;-84
2021/12/30 11:42:57;;;;;;;26.80;8.07;;;21.40;70.40;;;;;;4982601;28;87992;-88
2021/12/30 11:45:36;;;;;;;29.48;7.55;;;21.40;70.60;;;;;;4983537;28;89498;-88
2021/12/30 11:48:04;;;;;;;26.35;8.23;;;21.30;70.50;;;;;;4982346;28;89580;-92
2021/12/30 11:50:37;;;;;;;24.13;7.15;;;21.30;70.30;;;;;;4983023;28;89823;-92
2021/12/30 11:53:08;;;;;;;24.30;7.78;;;21.40;70.30;;;;;;4982655;28;86998;-86
2021/12/30 11:55:49;;;;;;;25.55;7.63;;;21.30;70.10;;;;;;4982948;28;87926;-86
2021/12/30 11:58:36;;;;;;;28.25;7.28;;;21.30;70.20;;;;;;4983439;28;89917;-85
2021/12/30 12:01:10;;;;;;;25.60;7.35;;;21.30;69.90;;;;;;4983561;28;87101;-88
2021/12/30 12:03:39;;;;;;;25.73;6.70;;;21.30;70.00;;;;;;4981138;28;87010;-87
2021/12/30 12:06:24;;;;;;;27.27;6.95;;;21.30;69.90;;;;;;4980521;28;88100;-89
2021/12/30 12:08:55;;;;;;;19.98;6.72;;;21.30;69.50;;;;;;4981880;28;90230;-86
2021/12/30 12:11:42;;;;;;;23.77;7.43;;;21.30;69.80;;;;;;4983288;28;86811;-84
2021/12/30 12:14:16;;;;;;;35.67;7.80;;;21.30;69.60;;;;;;4984502;28;87921;-90
2021/12/30 12:16:55;;;;;;;19.88;7.07;;;21.30;69.70;;;;;;4984226;28;87951;-85
2021/12/30 12:19:50;;;;;;;21.83;7.20;;;21.30;69.50;;;;;;4982816;28;89590;-88
2021/12/30 12:22:19;;;;;;;16.45;6.38;;;21.30;69.60;;;;;;4982143;28;89742;-86
2021/12/30 12:24:46;;;;;;;20.23;6.20;;;21.30;69.40;;;;;;4981234;28;88609;-85
2021/12/30 12:27:31;;;;;;;21.25;6.78;;;21.30;69.40;;;;;;4983178;28;87867;-89
2021/12/30 12:30:00;;;;;;;19.17;6.70;;;21.30;69.30;;;;;;4982414;28;88323;-83
2021/12/30 12:32:32;;;;;;;16.63;6.83;;;21.30;69.30;;;;;;4980681;28;90625;-91
2021/12/30 12:35:11;;;;;;;19.55;6.47;;;21.20;69.40;;;;;;4981434;28;88051;-92
2021/12/30 12:37:37;;;;;;;19.15;6.57;;;21.20;69.40;;;;;;4982037;28;87761;-94
2021/12/30 12:40:10;;;;;;;20.08;6.72;;;21.20;69.20;;;;;;4980449;28;89689;-89
2021/12/30 12:42:48;;;;;;;17.90;6.53;;;21.20;69.10;;;;;;4982468;28;86825;-91
2021/12/30 12:45:24;;;;;;;20.48;6.78;;;21.20;69.10;;;;;;4982404;28;87468;-87
2021/12/30 12:48:16;;;;;;;25.38;7.45;;;21.20;68.90;;;;;;4981826;28;88290;-83
2021/12/30 12:50:53;;;;;;;18.67;6.38;;;21.20;68.80;;;;;;4971915;28;90084;-86
2021/12/30 12:53:21;;;;;;;14.82;5.78;;;21.20;68.70;;;;;;4981340;28;90213;-90